Time;durP1;ratioP1;P1;durP2;ratioP2;P2;SDS_P1;SDS_P2;PMS_P1;PMS_P2;Temp;Humidity;BMP_temperature;BMP_pressure;BME280_temperature;BME280_humidity;BME280_pressure;Samples;Min_cycle;Max_cycle;Signal;HPM_P1;HPM_P2
2022/03/13 00:02:16;;;;;;;17.45;10.40;;;;;;;1.62;45.92;101900.50;5052573;28;20136;-76
2022/03/13 00:04:44;;;;;;;18.83;10.18;;;;;;;1.59;45.75;101905.88;5052944;28;20068;-75
2022/03/13 00:07:18;;;;;;;16.40;9.05;;;;;;;1.59;46.23;101909.38;5052936;28;20104;-76
2022/03/13 00:09:47;;;;;;;17.23;8.88;;;;;;;1.62;46.01;101913.78;5035484;28;20029;-77
2022/03/13 00:12:15;;;;;;;17.25;9.15;;;;;;;1.42;46.47;101894.78;5053209;28;20033;-75
2022/03/13 00:14:43;;;;;;;16.33;10.15;;;;;;;1.52;46.40;101906.94;5056817;28;20035;-75
2022/03/13 00:17:16;;;;;;;17.42;9.65;;;;;;;1.40;46.49;101912.53;5053099;28;20032;-76
2022/03/13 00:19:42;;;;;;;21.77;11.27;;;;;;;1.41;46.63;101903.63;5034747;28;20033;-76
2022/03/13 00:22:09;;;;;;;17.75;10.15;;;;;;;1.35;46.92;101894.06;5062143;28;20043;-76
2022/03/13 00:24:35;;;;;;;21.00;10.73;;;;;;;1.39;46.88;101892.22;5067941;28;20103;-76
2022/03/13 00:27:01;;;;;;;20.88;9.82;;;;;;;1.34;46.89;101902.94;5034943;28;20058;-78
2022/03/13 00:29:27;;;;;;;18.77;9.60;;;;;;;1.26;47.43;101888.09;5054158;28;20021;-75
2022/03/13 00:31:52;;;;;;;16.20;9.98;;;;;;;1.29;47.45;101894.19;5072668;28;20074;-76
2022/03/13 00:34:18;;;;;;;18.52;9.20;;;;;;;1.27;46.90;101873.94;5050635;28;20509;-76
2022/03/13 00:36:44;;;;;;;17.85;10.23;;;;;;;1.30;46.83;101889.78;5035671;28;20383;-77
2022/03/13 00:39:09;;;;;;;19.67;10.40;;;;;;;1.36;46.80;101890.50;5054953;28;20166;-75
2022/03/13 00:41:36;;;;;;;18.60;10.30;;;;;;;1.41;46.63;101877.13;5064963;28;20406;-76
2022/03/13 00:44:02;;;;;;;17.70;10.30;;;;;;;1.37;46.48;101880.78;5070914;28;20107;-76
2022/03/13 00:46:28;;;;;;;21.52;10.45;;;;;;;1.46;46.37;101878.78;5053139;28;20933;-76
2022/03/13 00:48:53;;;;;;;20.98;10.65;;;;;;;1.47;46.11;101869.03;5035980;28;20036;-76
2022/03/13 00:51:19;;;;;;;16.05;9.18;;;;;;;1.42;45.96;101865.63;5072348;28;20463;-75
2022/03/13 00:53:45;;;;;;;18.17;9.68;;;;;;;1.47;45.77;101867.25;5066621;28;20028;-75
2022/03/13 00:56:10;;;;;;;17.55;8.98;;;;;;;1.56;45.16;101863.53;5050251;28;20039;-76
2022/03/13 00:58:38;;;;;;;18.92;9.55;;;;;;;1.51;45.39;101863.63;5077090;28;20033;-76
2022/03/13 01:01:04;;;;;;;13.13;9.23;;;;;;;1.62;45.34;101877.50;5053573;28;20045;-76
2022/03/13 01:03:36;;;;;;;20.40;8.65;;;;;;;1.65;45.60;101876.56;5051604;28;20036;-76
2022/03/13 01:06:05;;;;;;;15.10;9.15;;;;;;;1.62;45.18;101877.50;5051910;28;20091;-76
2022/03/13 01:08:31;;;;;;;17.08;8.82;;;;;;;1.60;45.43;101874.03;5051526;28;20586;-76
2022/03/13 01:10:57;;;;;;;16.75;8.98;;;;;;;1.65;45.23;101877.41;5058212;28;20032;-76
2022/03/13 01:13:23;;;;;;;17.63;9.25;;;;;;;1.62;45.22;101876.66;5038874;28;20090;-76
2022/03/13 01:15:49;;;;;;;15.45;8.93;;;;;;;1.66;45.22;101870.34;5049698;28;20029;-77
2022/03/13 01:18:16;;;;;;;18.13;9.77;;;;;;;1.71;44.93;101873.75;5051511;28;20032;-76
2022/03/13 01:20:45;;;;;;;19.77;9.43;;;;;;;1.74;45.17;101870.16;5034010;28;20029;-77
2022/03/13 01:23:11;;;;;;;18.45;9.45;;;;;;;1.69;45.38;101861.44;5051633;28;20029;-76
2022/03/13 01:25:38;;;;;;;18.13;9.10;;;;;;;1.74;45.49;101870.16;5051608;28;20491;-75
2022/03/13 01:28:04;;;;;;;20.55;9.45;;;;;;;1.62;45.37;101852.78;5033734;28;20029;-76
2022/03/13 01:30:30;;;;;;;20.60;11.63;;;;;;;1.72;45.36;101870.19;5051523;28;20087;-76
2022/03/13 01:32:56;;;;;;;18.73;10.10;;;;;;;1.74;45.35;101870.16;5051635;28;20055;-76
2022/03/13 01:35:23;;;;;;;24.30;11.77;;;;;;;1.75;45.42;101862.16;5033654;28;20121;-75
2022/03/13 01:37:51;;;;;;;25.08;12.32;;;;;;;1.78;45.38;101867.38;5051566;28;20167;-76
2022/03/13 01:40:22;;;;;;;22.85;11.25;;;;;;;1.81;45.78;101872.59;5034145;28;20071;-76
2022/03/13 01:42:48;;;;;;;23.55;10.98;;;;;;;1.80;45.58;101860.28;5051584;28;20040;-76
2022/03/13 01:45:18;;;;;;;18.38;10.18;;;;;;;1.74;45.86;101843.63;5054558;28;20033;-75
2022/03/13 01:47:44;;;;;;;18.88;9.98;;;;;;;1.89;45.80;101868.00;5055404;28;20384;-76
2022/03/13 01:50:12;;;;;;;16.48;9.18;;;;;;;1.85;45.63;101855.72;5038012;28;20048;-76
2022/03/13 01:52:41;;;;;;;16.02;10.63;;;;;;;1.89;46.21;101860.03;5054968;28;20033;-76
2022/03/13 01:55:07;;;;;;;21.13;11.50;;;;;;;1.93;46.04;101845.75;5055064;28;20455;-76
2022/03/13 01:57:36;;;;;;;23.20;11.02;;;;;;;1.94;46.32;101855.47;5054722;28;20040;-76
2022/03/13 02:00:07;;;;;;;23.73;11.13;;;;;;;1.87;46.10;101840.59;5036758;28;20049;-75
2022/03/13 02:02:33;;;;;;;25.83;12.20;;;;;;;1.92;46.44;101852.00;5054573;28;20036;-75
2022/03/13 02:04:59;;;;;;;22.38;13.23;;;;;;;1.98;46.45;101854.47;5054790;28;20025;-76
2022/03/13 02:07:28;;;;;;;21.60;12.32;;;;;;;2.01;46.66;101861.47;5055233;28;20726;-76
2022/03/13 02:09:55;;;;;;;24.15;12.55;;;;;;;1.94;46.63;101847.50;5055106;28;20497;-77
2022/03/13 02:12:24;;;;;;;18.10;12.18;;;;;;;1.93;47.10;101861.66;5054558;28;20636;-77
2022/03/13 02:14:50;;;;;;;29.85;12.77;;;;;;;1.75;47.19;101845.34;5054602;28;20029;-76
2022/03/13 02:17:32;;;;;;;22.73;12.50;;;;;;;1.68;47.39;101844.66;5074731;28;20101;-76
2022/03/13 02:19:58;;;;;;;24.98;13.23;;;;;;;1.51;47.25;101841.56;5038696;28;20035;-77
2022/03/13 02:22:24;;;;;;;21.13;12.02;;;;;;;1.60;47.77;101855.47;5054754;28;20021;-75
2022/03/13 02:24:51;;;;;;;26.73;12.60;;;;;;;1.68;47.69;101849.97;5054876;28;20028;-76
2022/03/13 02:27:23;;;;;;;22.45;12.57;;;;;;;1.65;47.67;101834.16;5054676;28;20029;-75
2022/03/13 02:29:49;;;;;;;;;;;;;;;1.69;47.74;101845.50;5054268;28;20629;-75
2022/03/13 02:32:14;;;;;;;24.40;14.68;;;;;;;1.47;47.69;101823.97;5036393;28;19984;-77
2022/03/13 02:34:40;;;;;;;33.40;17.98;;;;;;;1.63;47.53;101849.19;5059051;28;20029;-77
2022/03/13 02:37:18;;;;;;;33.40;17.30;;;;;;;1.53;47.82;101845.91;5054456;28;20060;-77
2022/03/13 02:39:44;;;;;;;28.48;17.10;;;;;;;1.50;48.25;101840.69;5035891;28;20029;-75
2022/03/13 02:42:10;;;;;;;26.83;16.52;;;;;;;1.42;48.30;101829.41;5052924;28;20036;-75
2022/03/13 02:44:36;;;;;;;30.63;17.58;;;;;;;1.50;48.02;101823.91;5053615;28;20029;-77
2022/03/13 02:47:04;;;;;;;30.67;16.73;;;;;;;1.52;48.48;101822.09;5054786;28;20489;-75
2022/03/13 02:49:32;;;;;;;32.00;17.30;;;;;;;1.63;48.45;101841.25;5036094;28;20052;-75
2022/03/13 02:52:01;;;;;;;35.65;16.60;;;;;;;1.68;48.40;101841.16;5054094;28;20482;-75
2022/03/13 02:54:27;;;;;;;30.55;16.23;;;;;;;1.72;48.09;101843.66;5049727;28;20029;-75
2022/03/13 02:56:53;;;;;;;25.42;13.52;;;;;;;1.69;48.14;101834.91;5053578;28;20032;-76
2022/03/13 02:59:19;;;;;;;22.50;14.20;;;;;;;1.68;48.37;101836.72;5053492;28;20045;-76
2022/03/13 03:01:44;;;;;;;23.67;13.38;;;;;;;1.76;47.84;101837.38;5036342;28;20037;-75
2022/03/13 03:04:10;;;;;;;16.50;10.25;;;;;;;1.79;47.61;101832.00;5053630;28;20067;-75
2022/03/13 03:06:39;;;;;;;18.33;9.93;;;;;;;1.82;47.26;101841.66;5054347;28;20036;-76
2022/03/13 03:09:05;;;;;;;23.10;12.15;;;;;;;1.77;46.80;101815.25;5035941;28;20028;-77
2022/03/13 03:11:34;;;;;;;20.02;12.55;;;;;;;1.87;47.22;101845.03;5054158;28;20021;-75
2022/03/13 03:14:02;;;;;;;20.42;11.48;;;;;;;1.83;47.71;101836.31;5053664;28;20060;-75
2022/03/13 03:16:27;;;;;;;22.35;12.25;;;;;;;1.79;48.14;101842.59;5035758;28;20025;-76
2022/03/13 03:18:53;;;;;;;20.98;12.20;;;;;;;1.70;48.17;101842.84;5053849;28;20037;-76
2022/03/13 03:21:18;;;;;;;21.20;12.02;;;;;;;1.64;48.20;101840.34;5047118;28;20442;-76
2022/03/13 03:23:44;;;;;;;23.05;12.23;;;;;;;1.55;48.30;101816.72;5045278;28;20473;-76
2022/03/13 03:26:10;;;;;;;24.08;13.27;;;;;;;1.71;48.70;101847.25;5053533;28;20119;-76
2022/03/13 03:28:35;;;;;;;25.52;13.13;;;;;;;1.69;48.90;101843.75;5035471;28;20441;-76
2022/03/13 03:31:03;;;;;;;22.50;12.50;;;;;;;1.73;48.83;101842.75;5035915;28;20032;-76
2022/03/13 03:33:29;;;;;;;28.00;13.65;;;;;;;1.75;48.96;101843.59;5053557;28;20462;-76
2022/03/13 03:35:54;;;;;;;23.30;13.52;;;;;;;1.60;49.13;101823.63;5053765;28;20044;-76
2022/03/13 03:38:20;;;;;;;22.77;12.93;;;;;;;1.70;49.09;101841.97;5053503;28;20029;-76
2022/03/13 03:40:47;;;;;;;27.52;13.18;;;;;;;1.70;49.28;101858.75;5053086;28;20029;-75
2022/03/13 03:43:12;;;;;;;23.58;13.02;;;;;;;1.67;49.70;101848.22;5053360;28;20017;-76
2022/03/13 03:45:38;;;;;;;24.35;13.73;;;;;;;1.59;49.59;101850.22;5053434;28;20368;-76
2022/03/13 03:48:04;;;;;;;26.30;13.27;;;;;;;1.58;49.62;101837.84;5052749;28;20032;-76
2022/03/13 03:50:29;;;;;;;26.73;14.15;;;;;;;1.71;49.51;101849.91;5052650;28;20473;-76
2022/03/13 03:52:56;;;;;;;26.58;14.60;;;;;;;1.68;49.36;101839.38;5035176;28;20575;-76
2022/03/13 03:55:23;;;;;;;34.10;17.67;;;;;;;1.82;49.23;101854.91;5032908;28;20021;-76
2022/03/13 03:57:49;;;;;;;35.17;17.20;;;;;;;1.83;48.88;101859.31;5051834;28;20025;-76
2022/03/13 04:00:15;;;;;;;30.98;16.15;;;;;;;1.92;48.70;101861.72;5052023;28;20045;-76
2022/03/13 04:02:42;;;;;;;27.23;15.43;;;;;;;1.85;48.47;101857.47;5052830;28;20032;-76
2022/03/13 04:05:09;;;;;;;27.13;16.27;;;;;;;1.92;48.36;101854.66;5052475;28;20390;-75
2022/03/13 04:07:36;;;;;;;24.80;13.70;;;;;;;1.91;48.39;101858.19;5052736;28;20024;-76
2022/03/13 04:10:03;;;;;;;27.40;15.00;;;;;;;1.87;48.38;101845.91;5054737;28;20020;-76
2022/03/13 04:12:30;;;;;;;34.30;15.10;;;;;;;1.91;48.28;101862.63;5036046;28;20020;-76
2022/03/13 04:14:55;;;;;;;28.65;14.68;;;;;;;1.86;48.33;101853.94;5052572;28;20051;-75
2022/03/13 04:17:21;;;;;;;26.35;13.98;;;;;;;1.91;48.55;101849.38;5052607;28;20021;-76
2022/03/13 04:19:47;;;;;;;28.38;15.05;;;;;;;1.84;48.52;101848.66;5052490;28;20083;-76
2022/03/13 04:22:13;;;;;;;23.98;14.50;;;;;;;1.90;48.45;101856.44;5034940;28;20139;-76
2022/03/13 04:24:39;;;;;;;36.97;16.27;;;;;;;1.82;48.74;101857.56;5034333;28;20112;-76
2022/03/13 04:27:05;;;;;;;31.17;15.93;;;;;;;1.73;48.73;101858.69;5070459;28;20108;-77
2022/03/13 04:29:30;;;;;;;27.30;14.70;;;;;;;1.76;49.09;101861.25;5052151;28;20051;-76
2022/03/13 04:31:57;;;;;;;26.88;14.93;;;;;;;1.82;49.03;101858.44;5052372;28;20025;-78
2022/03/13 04:34:22;;;;;;;31.27;14.48;;;;;;;1.81;48.90;101850.50;5034613;28;20037;-77
2022/03/13 04:36:49;;;;;;;24.02;14.10;;;;;;;1.89;48.96;101862.69;5053106;28;20035;-76
2022/03/13 04:39:17;;;;;;;24.25;14.48;;;;;;;1.91;49.00;101859.97;5052636;28;20033;-78
2022/03/13 04:41:43;;;;;;;25.75;15.68;;;;;;;1.90;48.73;101853.78;5052855;28;20029;-78
2022/03/13 04:44:10;;;;;;;29.13;14.70;;;;;;;1.90;48.66;101853.78;5052319;28;20025;-77
2022/03/13 04:46:36;;;;;;;31.85;14.32;;;;;;;1.92;48.91;101861.72;5034815;28;20479;-76
2022/03/13 04:49:02;;;;;;;28.80;14.32;;;;;;;1.94;48.71;101857.25;5052816;28;20021;-77
2022/03/13 04:51:27;;;;;;;28.17;14.45;;;;;;;1.97;48.11;101860.69;5034356;28;20033;-77
2022/03/13 04:53:53;;;;;;;33.97;12.10;;;;;;;1.99;48.42;101872.13;5051940;28;20499;-77
2022/03/13 04:56:18;;;;;;;22.83;13.52;;;;;;;1.97;48.50;101867.78;5034846;28;20060;-80
2022/03/13 04:58:44;;;;;;;19.52;12.40;;;;;;;1.96;48.39;101866.03;5052023;28;20024;-77
2022/03/13 05:01:09;;;;;;;24.25;12.80;;;;;;;1.95;48.32;101870.47;5034750;28;20084;-77
2022/03/13 05:03:35;;;;;;;20.75;12.77;;;;;;;2.03;48.27;101873.78;5034691;28;20033;-79
2022/03/13 05:06:05;;;;;;;23.98;12.45;;;;;;;2.04;48.27;101870.25;5034755;28;20036;-76
2022/03/13 05:08:36;;;;;;;27.98;13.25;;;;;;;2.12;48.35;101870.91;5052688;28;20509;-85
2022/03/13 05:11:06;;;;;;;23.38;13.48;;;;;;;2.06;47.99;101868.41;5052798;28;20100;-79
2022/03/13 05:13:33;;;;;;;27.83;15.18;;;;;;;2.10;48.20;101879.81;5052955;28;20024;-81
2022/03/13 05:15:58;;;;;;;35.00;15.93;;;;;;;2.07;48.37;101874.59;5053628;28;20080;-78
2022/03/13 05:18:24;;;;;;;39.03;16.92;;;;;;;1.95;48.38;101870.47;5052406;28;20025;-77
2022/03/13 05:20:49;;;;;;;30.83;17.92;;;;;;;1.91;48.41;101871.47;5056089;28;20044;-77
2022/03/13 05:23:15;;;;;;;28.75;17.40;;;;;;;1.94;48.89;101873.16;5055499;28;20462;-77
2022/03/13 05:25:41;;;;;;;31.10;16.25;;;;;;;1.95;48.64;101874.91;5038279;28;20036;-77
2022/03/13 05:28:10;;;;;;;30.40;16.40;;;;;;;1.97;48.71;101873.06;5056045;28;20031;-78
2022/03/13 05:30:37;;;;;;;47.40;17.00;;;;;;;2.05;48.75;101877.25;5067197;28;20089;-79
2022/03/13 05:33:04;;;;;;;29.02;15.38;;;;;;;2.16;48.77;101883.19;5056204;28;20099;-78
2022/03/13 05:35:30;;;;;;;28.98;14.73;;;;;;;2.16;48.78;101875.22;5055385;28;20032;-78
2022/03/13 05:37:55;;;;;;;27.90;16.30;;;;;;;2.30;48.51;101872.16;5055335;28;20029;-79
2022/03/13 05:40:22;;;;;;;32.78;14.88;;;;;;;2.31;48.57;101878.34;5038369;28;20064;-78
2022/03/13 05:42:54;;;;;;;36.40;16.10;;;;;;;2.40;48.51;101883.41;5055654;28;20040;-77
2022/03/13 05:45:20;;;;;;;33.85;16.63;;;;;;;2.37;48.49;101880.84;5055815;28;20020;-77
2022/03/13 05:47:54;;;;;;;32.15;15.65;;;;;;;2.52;48.61;101883.06;5045654;28;20035;-77
2022/03/13 05:50:23;;;;;;;27.42;14.38;;;;;;;2.61;48.25;101893.44;5056199;28;20021;-76
2022/03/13 05:52:49;;;;;;;28.70;15.50;;;;;;;2.75;48.28;101900.06;5037998;28;20516;-78
2022/03/13 05:55:16;;;;;;;28.98;15.07;;;;;;;2.80;48.14;101884.03;5037830;28;20032;-77
2022/03/13 05:57:42;;;;;;;34.35;16.27;;;;;;;3.00;48.09;101897.56;5055484;28;20091;-77
2022/03/13 06:00:13;;;;;;;35.90;15.32;;;;;;;3.08;47.44;101887.59;5037007;28;20045;-77
2022/03/13 06:02:40;;;;;;;27.20;15.25;;;;;;;3.16;48.05;101895.31;5054566;28;20108;-78
2022/03/13 06:05:11;;;;;;;22.60;13.48;;;;;;;3.18;47.26;101890.84;5055261;28;20025;-77
2022/03/13 06:07:40;;;;;;;30.30;15.90;;;;;;;3.31;47.40;101886.88;5037312;28;20104;-77
2022/03/13 06:10:08;;;;;;;23.17;14.57;;;;;;;3.50;47.13;101897.81;5054469;28;20409;-79
2022/03/13 06:12:35;;;;;;;25.98;15.80;;;;;;;3.47;47.12;101892.59;5055251;28;20117;-77
2022/03/13 06:15:01;;;;;;;24.85;14.38;;;;;;;3.58;46.58;101906.41;5054616;28;20043;-77
2022/03/13 06:17:28;;;;;;;25.90;14.00;;;;;;;3.68;46.54;101903.41;5055257;28;20028;-78
2022/03/13 06:19:55;;;;;;;25.98;14.60;;;;;;;3.69;46.34;101901.63;5054170;28;20048;-78
2022/03/13 06:22:24;;;;;;;33.65;15.50;;;;;;;3.76;46.28;101906.66;5056619;28;20029;-79
2022/03/13 06:24:50;;;;;;;26.77;15.23;;;;;;;3.78;46.18;101893.34;5041107;28;20072;-77
2022/03/13 06:27:18;;;;;;;28.25;14.13;;;;;;;3.78;45.73;101901.31;5027510;28;20033;-80
2022/03/13 06:29:43;;;;;;;24.67;15.02;;;;;;;3.84;45.89;101893.13;5053893;28;20021;-77
2022/03/13 06:32:09;;;;;;;25.67;14.55;;;;;;;3.91;45.73;101905.31;5035554;28;20033;-82
2022/03/13 06:34:36;;;;;;;30.17;15.15;;;;;;;3.92;45.58;101896.38;5036619;28;20055;-78
2022/03/13 06:37:03;;;;;;;23.23;14.65;;;;;;;4.03;45.87;101901.38;5036160;28;20032;-77
2022/03/13 06:39:29;;;;;;;23.23;13.07;;;;;;;4.02;45.46;101881.84;5054623;28;20028;-80
2022/03/13 06:41:54;;;;;;;21.83;12.65;;;;;;;4.09;44.94;101898.50;5062267;28;20497;-80
2022/03/13 06:44:20;;;;;;;27.45;14.23;;;;;;;4.07;45.34;101901.19;5075166;28;20024;-90
2022/03/13 06:46:46;;;;;;;30.90;14.55;;;;;;;4.09;45.49;101901.16;5043912;28;20025;-87
2022/03/13 06:49:12;;;;;;;25.30;13.80;;;;;;;4.07;44.92;101885.22;5076970;28;20064;-79
2022/03/13 06:51:38;;;;;;;25.02;13.13;;;;;;;4.11;44.72;101897.50;5059993;28;20032;-77
2022/03/13 06:54:06;;;;;;;30.08;14.43;;;;;;;4.13;44.20;101895.66;5062303;28;20045;-78
2022/03/13 06:56:31;;;;;;;36.10;15.43;;;;;;;4.17;44.54;101902.63;5054142;28;20031;-79
2022/03/13 06:59:03;;;;;;;26.25;13.32;;;;;;;4.17;44.34;101899.97;5035780;28;20029;-78
2022/03/13 07:01:29;;;;;;;29.92;14.52;;;;;;;4.21;44.00;101888.28;5053583;28;20049;-77
2022/03/13 07:03:55;;;;;;;39.65;15.15;;;;;;;4.26;43.83;101886.31;5053426;28;20021;-79
2022/03/13 07:06:23;;;;;;;28.17;14.80;;;;;;;4.40;43.64;101899.16;5054020;28;20402;-81
2022/03/13 07:08:49;;;;;;;33.08;14.32;;;;;;;4.46;44.11;101893.63;5037247;28;20100;-81
2022/03/13 07:11:15;;;;;;;27.75;14.02;;;;;;;4.57;43.48;101898.53;5054677;28;20048;-81
2022/03/13 07:13:44;;;;;;;26.02;14.40;;;;;;;4.56;43.47;101887.00;5037263;28;20033;-84
2022/03/13 07:16:10;;;;;;;20.15;13.15;;;;;;;4.77;43.57;101894.22;5055175;28;20099;-87
2022/03/13 07:18:36;;;;;;;27.17;13.02;;;;;;;4.46;43.08;101861.66;5037664;28;20028;-84
2022/03/13 07:21:02;;;;;;;22.38;13.45;;;;;;;4.73;42.85;101883.75;5037259;28;20021;-80
2022/03/13 07:23:30;;;;;;;19.33;11.32;;;;;;;4.85;42.96;101899.28;5056063;28;20104;-89
2022/03/13 07:25:56;;;;;;;21.25;11.98;;;;;;;4.59;42.68;101851.38;5056368;28;20462;-83
2022/03/13 07:28:22;;;;;;;21.70;13.45;;;;;;;4.96;42.64;101897.06;5054485;28;20017;-88
2022/03/13 07:30:47;;;;;;;35.58;15.57;;;;;;;4.93;42.83;101878.50;5035808;28;20028;-82
2022/03/13 07:33:13;;;;;;;25.02;13.07;;;;;;;4.92;42.15;101871.47;5057570;28;20094;-82
2022/03/13 07:35:39;;;;;;;21.85;12.32;;;;;;;5.02;42.25;101891.50;5054787;28;20032;-83
2022/03/13 07:38:05;;;;;;;18.80;11.88;;;;;;;5.16;42.26;101897.19;5054820;28;20104;-80
2022/03/13 07:40:31;;;;;;;24.55;11.80;;;;;;;5.18;42.09;101889.97;5074006;28;20062;-82
2022/03/13 07:42:57;;;;;;;17.98;11.10;;;;;;;5.22;42.21;101896.94;5046341;28;20059;-84
2022/03/13 07:45:24;;;;;;;19.08;11.15;;;;;;;5.38;41.88;101894.53;5035952;28;20017;-84
2022/03/13 07:47:50;;;;;;;22.45;11.38;;;;;;;5.30;41.71;101868.16;5039541;28;20024;-83
2022/03/13 07:50:16;;;;;;;28.67;12.48;;;;;;;5.47;41.74;101900.34;5046781;28;20024;-87
2022/03/13 07:52:42;;;;;;;24.10;13.43;;;;;;;5.57;41.41;101881.31;5057416;28;20395;-87
2022/03/13 07:55:14;;;;;;;28.55;13.77;;;;;;;5.61;41.43;101873.13;5055330;28;20107;-88
2022/03/13 07:57:39;;;;;;;22.20;13.75;;;;;;;5.65;40.94;101863.19;5059763;28;20047;-77
2022/03/13 08:00:06;;;;;;;18.90;11.55;;;;;;;5.97;40.80;101884.09;5061111;28;20577;-83
2022/03/13 08:02:32;;;;;;;23.10;12.85;;;;;;;6.02;41.09;101884.78;5056278;28;20020;-80
2022/03/13 08:04:57;;;;;;;27.98;13.65;;;;;;;6.08;41.75;101897.88;5073630;28;20051;-82
2022/03/13 08:07:23;;;;;;;21.40;12.35;;;;;;;6.06;41.43;101882.84;5045433;28;20064;-81
2022/03/13 08:09:49;;;;;;;35.40;13.93;;;;;;;6.17;41.14;101889.47;5056511;28;20024;-79
2022/03/13 08:12:14;;;;;;;25.10;12.57;;;;;;;6.23;41.47;101894.56;5040112;28;20031;-81
2022/03/13 08:14:40;;;;;;;20.55;13.07;;;;;;;6.26;42.07;101899.75;5055650;28;20021;-82
2022/03/13 08:17:05;;;;;;;35.67;14.38;;;;;;;6.28;42.28;101886.31;5058074;28;20025;-86
2022/03/13 08:19:31;;;;;;;29.30;13.90;;;;;;;6.31;41.50;101884.38;5053428;28;20020;-78
2022/03/13 08:21:56;;;;;;;29.05;14.20;;;;;;;6.34;41.28;101881.59;5054291;28;20048;-81
2022/03/13 08:24:22;;;;;;;24.02;12.00;;;;;;;6.47;41.20;101898.81;5039786;28;20116;-83
2022/03/13 08:26:47;;;;;;;36.47;14.52;;;;;;;6.61;40.76;101894.66;5035669;28;20100;-82
2022/03/13 08:29:15;;;;;;;25.00;13.27;;;;;;;6.75;40.71;101897.59;5057059;28;20017;-82
2022/03/13 08:31:40;;;;;;;31.58;14.52;;;;;;;6.65;40.38;101845.47;5060438;28;20017;-82
2022/03/13 08:34:10;;;;;;;23.17;12.93;;;;;;;6.90;39.69;101859.44;5035831;28;20025;-81
2022/03/13 08:36:40;;;;;;;19.92;11.30;;;;;;;7.01;39.07;101857.13;5053290;28;20060;-81
2022/03/13 08:39:07;;;;;;;16.92;9.80;;;;;;;6.96;36.64;101838.63;5034027;28;20021;-82
2022/03/13 08:41:33;;;;;;;24.27;9.52;;;;;;;6.99;37.16;101842.97;5057613;28;21791;-84
2022/03/13 08:43:59;;;;;;;15.43;7.75;;;;;;;7.17;36.00;101884.91;5053232;28;20086;-83
2022/03/13 08:46:25;;;;;;;12.35;6.97;;;;;;;7.03;35.04;101845.41;5053607;28;20089;-80
2022/03/13 08:48:50;;;;;;;15.63;8.13;;;;;;;7.17;34.58;101862.63;5055097;28;20025;-80
2022/03/13 08:51:18;;;;;;;18.48;7.57;;;;;;;7.19;34.53;101888.34;5055840;28;20408;-79
2022/03/13 08:53:44;;;;;;;17.60;8.45;;;;;;;7.12;34.63;101853.00;5056250;28;20438;-78
2022/03/13 08:56:13;;;;;;;20.17;9.48;;;;;;;7.27;35.68;101875.50;5037874;28;20025;-79
2022/03/13 08:58:40;;;;;;;16.27;6.78;;;;;;;7.47;34.93;101872.72;5054888;28;20017;-80
2022/03/13 09:01:06;;;;;;;13.93;6.55;;;;;;;7.73;34.41;101889.31;5037428;28;20494;-78
2022/03/13 09:03:33;;;;;;;17.08;6.93;;;;;;;7.83;33.90;101885.25;5038506;28;20029;-79
2022/03/13 09:05:58;;;;;;;14.25;6.22;;;;;;;7.68;33.93;101854.72;5041666;28;20021;-80
2022/03/13 09:08:24;;;;;;;14.75;7.28;;;;;;;7.74;33.46;101858.91;5056795;28;20541;-80
2022/03/13 09:10:52;;;;;;;29.73;8.73;;;;;;;7.74;33.81;101858.91;5037770;28;20068;-81
2022/03/13 09:13:20;;;;;;;10.48;6.82;;;;;;;7.86;33.91;101855.63;5037707;28;20422;-79
2022/03/13 09:15:50;;;;;;;12.00;7.88;;;;;;;8.12;33.54;101880.16;5056982;28;20056;-80
2022/03/13 09:18:16;;;;;;;537.63;26.52;;;;;;;8.09;34.10;101874.94;5037407;28;20116;-80
2022/03/13 09:20:42;;;;;;;23.58;11.75;;;;;;;8.09;33.85;101844.59;5055370;28;20431;-78
2022/03/13 09:23:07;;;;;;;18.45;6.85;;;;;;;8.12;33.56;101833.72;5054080;28;20025;-79
2022/03/13 09:25:34;;;;;;;15.35;7.50;;;;;;;8.38;33.64;101849.31;5037393;28;20485;-80
2022/03/13 09:28:01;;;;;;;16.35;7.45;;;;;;;8.80;33.93;101881.06;5060580;28;20016;-78
2022/03/13 09:30:27;;;;;;;14.77;7.97;;;;;;;8.98;33.10;101881.84;5054824;28;20025;-80
2022/03/13 09:32:52;;;;;;;16.23;7.80;;;;;;;8.91;32.27;101856.31;5057338;28;20025;-80
2022/03/13 09:35:18;;;;;;;16.25;7.28;;;;;;;9.01;32.39;101862.91;5057049;28;20036;-80
2022/03/13 09:37:44;;;;;;;15.48;7.45;;;;;;;9.22;32.22;101877.81;5036842;28;20061;-80
2022/03/13 09:40:12;;;;;;;13.25;7.38;;;;;;;9.19;32.42;101856.50;5055659;28;20033;-81
2022/03/13 09:42:37;;;;;;;16.38;6.97;;;;;;;9.37;31.83;101874.28;5038137;28;20021;-81
2022/03/13 09:45:03;;;;;;;15.45;6.43;;;;;;;9.30;32.14;101865.69;5056305;28;20199;-81
2022/03/13 09:47:29;;;;;;;12.10;5.80;;;;;;;9.37;31.35;101871.59;5038250;28;20021;-79
2022/03/13 09:49:55;;;;;;;10.70;5.95;;;;;;;9.15;31.70;101849.56;5057852;28;20202;-79
2022/03/13 09:52:21;;;;;;;13.48;6.47;;;;;;;9.23;32.01;101861.59;5037847;28;20025;-80
2022/03/13 09:54:47;;;;;;;14.98;5.90;;;;;;;9.01;32.18;101838.75;5063810;28;20021;-82
2022/03/13 09:57:13;;;;;;;16.35;9.18;;;;;;;9.03;32.02;101832.34;5054896;28;20143;-82
2022/03/13 09:59:38;;;;;;;14.38;6.88;;;;;;;9.28;32.38;101864.03;5042716;28;20060;-83
2022/03/13 10:02:08;;;;;;;12.23;6.50;;;;;;;9.30;32.43;101862.13;5067613;28;20047;-83
2022/03/13 10:04:34;;;;;;;16.13;7.13;;;;;;;9.26;32.18;101825.69;5056921;28;20479;-81
2022/03/13 10:07:06;;;;;;;17.02;6.43;;;;;;;9.55;32.32;101857.09;5055377;28;20059;-84
2022/03/13 10:09:36;;;;;;;13.35;7.05;;;;;;;9.53;31.99;101834.84;5037635;28;20096;-83
2022/03/13 10:12:14;;;;;;;16.02;8.40;;;;;;;9.49;31.63;101844.03;5055370;28;20080;-81
2022/03/13 10:15:04;;;;;;;11.50;7.25;;;;;;;9.43;31.61;101833.66;5053963;28;20438;-80
2022/03/13 10:17:32;;;;;;;13.15;6.85;;;;;;;9.53;31.68;101867.09;5037662;28;20056;-79
2022/03/13 10:20:11;;;;;;;9.57;5.72;;;;;;;9.57;31.52;101852.50;5054292;28;20035;-80
2022/03/13 10:22:38;;;;;;;14.10;6.30;;;;;;;9.63;31.18;101836.03;5069814;28;20097;-79
2022/03/13 10:25:05;;;;;;;16.85;8.00;;;;;;;9.95;31.18;101857.47;5036760;28;20422;-78
2022/03/13 10:27:32;;;;;;;10.15;6.40;;;;;;;10.16;31.28;101867.84;5033348;28;20119;-79
2022/03/13 10:30:01;;;;;;;16.60;6.70;;;;;;;10.18;30.56;101868.59;5017464;28;20021;-78
2022/03/13 10:32:26;;;;;;;11.90;6.55;;;;;;;10.10;30.75;101856.56;5035540;28;20146;-78
2022/03/13 10:34:54;;;;;;;16.85;7.70;;;;;;;10.20;30.85;101868.53;5035643;28;20091;-80
2022/03/13 10:37:42;;;;;;;12.05;6.10;;;;;;;10.28;31.14;101861.72;5034777;28;20089;-78
2022/03/13 10:40:19;;;;;;;12.35;7.30;;;;;;;10.30;30.80;101837.44;5038252;28;20111;-79
2022/03/13 10:42:46;;;;;;;9.10;5.65;;;;;;;10.31;30.39;101855.28;5055080;28;20375;-80
2022/03/13 10:45:47;;;;;;;21.25;7.95;;;;;;;10.49;30.27;101854.16;5052938;28;20028;-81
2022/03/13 10:48:18;;;;;;;20.63;7.53;;;;;;;10.55;30.32;101856.47;5054992;28;20017;-80
2022/03/13 10:50:45;;;;;;;12.77;7.75;;;;;;;10.40;29.71;101857.41;5043937;28;20041;-79
2022/03/13 10:53:14;;;;;;;11.63;5.78;;;;;;;10.21;29.58;101854.97;5057629;28;20052;-79
2022/03/13 10:55:41;;;;;;;16.75;7.85;;;;;;;10.21;31.25;101859.50;5055730;28;20044;-80
2022/03/13 10:58:07;;;;;;;18.10;8.57;;;;;;;9.87;33.72;101851.69;5037415;28;20488;-80
2022/03/13 11:00:34;;;;;;;18.85;9.15;;;;;;;9.65;34.31;101861.00;5055007;28;20135;-78
2022/03/13 11:03:14;;;;;;;18.08;9.40;;;;;;;9.63;34.80;101862.88;5036996;28;20085;-79
2022/03/13 11:05:40;;;;;;;15.38;8.52;;;;;;;9.15;35.55;101861.19;5054312;28;20025;-79
2022/03/13 11:08:07;;;;;;;15.25;7.65;;;;;;;8.76;36.96;101836.56;5053883;28;20025;-80
2022/03/13 11:10:39;;;;;;;14.25;7.85;;;;;;;8.69;37.34;101857.47;5056124;28;20033;-80
2022/03/13 11:13:05;;;;;;;16.50;8.80;;;;;;;8.41;37.64;101851.84;5051852;28;20100;-78
2022/03/13 11:15:32;;;;;;;16.25;8.20;;;;;;;8.10;38.54;101843.66;5036681;28;20091;-79
2022/03/13 11:18:01;;;;;;;21.27;10.48;;;;;;;8.12;39.05;101847.13;5054102;28;20430;-77
2022/03/13 11:20:29;;;;;;;15.85;7.50;;;;;;;8.19;38.51;101845.88;5054363;28;20120;-81